sensor_id;sensor_type;location;lat;lon;timestamp;P1;durP1;ratioP1;P2;durP2;ratioP2
29002;SDS011;16102;57.138;-2.118;2022-11-18T00:02:10;19.15;;;4.53;;
29002;SDS011;16102;57.138;-2.118;2022-11-18T00:05:07;11.82;;;2.40;;
29002;SDS011;16102;57.138;-2.118;2022-11-18T00:07:35;9.07;;;2.53;;
29002;SDS011;16102;57.138;-2.118;2022-11-18T00:10:03;10.57;;;2.65;;
29002;SDS011;16102;57.138;-2.118;2022-11-18T00:12:30;12.73;;;2.97;;
29002;SDS011;16102;57.138;-2.118;2022-11-18T00:15:16;9.60;;;2.85;;
29002;SDS011;16102;57.138;-2.118;2022-11-18T00:17:43;8.35;;;2.08;;
29002;SDS011;16102;57.138;-2.118;2022-11-18T00:20:09;9.40;;;1.90;;
29002;SDS011;16102;57.138;-2.118;2022-11-18T00:22:36;11.18;;;2.55;;
29002;SDS011;16102;57.138;-2.118;2022-11-18T00:25:04;6.03;;;1.48;;
29002;SDS011;16102;57.138;-2.118;2022-11-18T00:27:31;6.82;;;2.13;;
29002;SDS011;16102;57.138;-2.118;2022-11-18T00:29:58;8.68;;;1.95;;
29002;SDS011;16102;57.138;-2.118;2022-11-18T00:32:25;9.77;;;2.47;;
29002;SDS011;16102;57.138;-2.118;2022-11-18T00:44:42;6.78;;;1.83;;
29002;SDS011;16102;57.138;-2.118;2022-11-18T00:47:27;12.07;;;2.63;;
29002;SDS011;16102;57.138;-2.118;2022-11-18T00:52:54;9.82;;;2.03;;
29002;SDS011;16102;57.138;-2.118;2022-11-18T00:55:21;9.85;;;2.63;;
29002;SDS011;16102;57.138;-2.118;2022-11-18T00:57:52;7.07;;;2.13;;
29002;SDS011;16102;57.138;-2.118;2022-11-18T01:00:19;8.25;;;1.85;;
29002;SDS011;16102;57.138;-2.118;2022-11-18T01:02:47;8.63;;;2.17;;
29002;SDS011;16102;57.138;-2.118;2022-11-18T01:05:15;9.95;;;2.10;;
29002;SDS011;16102;57.138;-2.118;2022-11-18T01:07:51;5.53;;;1.55;;
29002;SDS011;16102;57.138;-2.118;2022-11-18T01:10:19;10.75;;;2.42;;
29002;SDS011;16102;57.138;-2.118;2022-11-18T01:12:46;10.75;;;2.30;;
29002;SDS011;16102;57.138;-2.118;2022-11-18T01:15:36;9.57;;;1.45;;
29002;SDS011;16102;57.138;-2.118;2022-11-18T01:18:08;10.60;;;2.03;;
29002;SDS011;16102;57.138;-2.118;2022-11-18T01:20:35;8.52;;;2.30;;
29002;SDS011;16102;57.138;-2.118;2022-11-18T01:23:03;11.25;;;2.53;;
29002;SDS011;16102;57.138;-2.118;2022-11-18T01:25:30;6.63;;;2.38;;
29002;SDS011;16102;57.138;-2.118;2022-11-18T01:27:57;7.32;;;1.77;;
29002;SDS011;16102;57.138;-2.118;2022-11-18T01:30:24;11.43;;;2.75;;
29002;SDS011;16102;57.138;-2.118;2022-11-18T01:32:51;8.77;;;1.98;;
29002;SDS011;16102;57.138;-2.118;2022-11-18T01:35:18;11.80;;;2.85;;
29002;SDS011;16102;57.138;-2.118;2022-11-18T01:37:49;6.10;;;1.73;;
29002;SDS011;16102;57.138;-2.118;2022-11-18T01:40:19;13.40;;;2.25;;
29002;SDS011;16102;57.138;-2.118;2022-11-18T01:42:50;11.48;;;2.78;;
29002;SDS011;16102;57.138;-2.118;2022-11-18T01:45:23;10.18;;;2.53;;
29002;SDS011;16102;57.138;-2.118;2022-11-18T01:50:31;7.97;;;2.20;;
29002;SDS011;16102;57.138;-2.118;2022-11-18T01:53:03;6.70;;;1.60;;
29002;SDS011;16102;57.138;-2.118;2022-11-18T01:55:35;12.02;;;2.40;;
29002;SDS011;16102;57.138;-2.118;2022-11-18T01:58:09;9.80;;;2.38;;
29002;SDS011;16102;57.138;-2.118;2022-11-18T02:00:41;6.18;;;2.83;;
29002;SDS011;16102;57.138;-2.118;2022-11-18T02:03:08;6.72;;;1.90;;
29002;SDS011;16102;57.138;-2.118;2022-11-18T02:05:35;13.95;;;3.10;;
29002;SDS011;16102;57.138;-2.118;2022-11-18T02:08:03;12.93;;;3.17;;
29002;SDS011;16102;57.138;-2.118;2022-11-18T02:10:33;11.85;;;3.13;;
29002;SDS011;16102;57.138;-2.118;2022-11-18T02:13:00;11.50;;;2.22;;
29002;SDS011;16102;57.138;-2.118;2022-11-18T02:15:34;9.57;;;2.22;;
29002;SDS011;16102;57.138;-2.118;2022-11-18T02:26:41;8.10;;;2.65;;
29002;SDS011;16102;57.138;-2.118;2022-11-18T02:29:16;8.23;;;2.13;;
29002;SDS011;16102;57.138;-2.118;2022-11-18T02:31:59;9.18;;;3.08;;
29002;SDS011;16102;57.138;-2.118;2022-11-18T02:34:32;12.70;;;3.33;;
29002;SDS011;16102;57.138;-2.118;2022-11-18T02:40:13;8.80;;;1.90;;
29002;SDS011;16102;57.138;-2.118;2022-11-18T02:42:41;8.60;;;2.10;;
29002;SDS011;16102;57.138;-2.118;2022-11-18T02:45:13;12.00;;;2.58;;
29002;SDS011;16102;57.138;-2.118;2022-11-18T02:47:43;8.20;;;2.05;;
29002;SDS011;16102;57.138;-2.118;2022-11-18T02:50:14;7.43;;;1.90;;
29002;SDS011;16102;57.138;-2.118;2022-11-18T02:52:47;7.05;;;1.92;;
29002;SDS011;16102;57.138;-2.118;2022-11-18T02:55:20;8.90;;;2.55;;
29002;SDS011;16102;57.138;-2.118;2022-11-18T02:57:49;8.15;;;1.98;;
29002;SDS011;16102;57.138;-2.118;2022-11-18T03:00:18;9.02;;;2.90;;
29002;SDS011;16102;57.138;-2.118;2022-11-18T03:02:48;5.35;;;2.05;;
29002;SDS011;16102;57.138;-2.118;2022-11-18T03:05:17;13.85;;;2.15;;
29002;SDS011;16102;57.138;-2.118;2022-11-18T03:08:10;11.20;;;2.28;;
29002;SDS011;16102;57.138;-2.118;2022-11-18T03:11:01;11.25;;;2.55;;
29002;SDS011;16102;57.138;-2.118;2022-11-18T03:13:38;10.32;;;2.05;;
29002;SDS011;16102;57.138;-2.118;2022-11-18T03:16:11;11.95;;;2.85;;
29002;SDS011;16102;57.138;-2.118;2022-11-18T03:18:49;4.55;;;1.80;;
29002;SDS011;16102;57.138;-2.118;2022-11-18T03:23:58;8.93;;;1.50;;
29002;SDS011;16102;57.138;-2.118;2022-11-18T03:26:42;7.20;;;1.60;;
29002;SDS011;16102;57.138;-2.118;2022-11-18T03:29:20;10.57;;;2.92;;
29002;SDS011;16102;57.138;-2.118;2022-11-18T03:31:57;13.52;;;2.72;;
29002;SDS011;16102;57.138;-2.118;2022-11-18T03:34:29;10.70;;;2.30;;
29002;SDS011;16102;57.138;-2.118;2022-11-18T03:37:07;17.52;;;3.20;;
29002;SDS011;16102;57.138;-2.118;2022-11-18T03:39:39;10.18;;;2.50;;
29002;SDS011;16102;57.138;-2.118;2022-11-18T03:44:43;10.65;;;2.80;;
29002;SDS011;16102;57.138;-2.118;2022-11-18T03:47:20;13.23;;;3.20;;
29002;SDS011;16102;57.138;-2.118;2022-11-18T03:50:15;12.75;;;3.72;;
29002;SDS011;16102;57.138;-2.118;2022-11-18T03:52:47;11.73;;;2.65;;
29002;SDS011;16102;57.138;-2.118;2022-11-18T03:55:16;9.82;;;2.40;;
29002;SDS011;16102;57.138;-2.118;2022-11-18T03:57:53;9.95;;;2.40;;
29002;SDS011;16102;57.138;-2.118;2022-11-18T04:00:21;9.10;;;2.72;;
29002;SDS011;16102;57.138;-2.118;2022-11-18T04:02:53;13.20;;;2.78;;
29002;SDS011;16102;57.138;-2.118;2022-11-18T04:05:21;19.95;;;4.68;;
29002;SDS011;16102;57.138;-2.118;2022-11-18T04:07:55;12.00;;;2.78;;
29002;SDS011;16102;57.138;-2.118;2022-11-18T04:13:23;11.35;;;3.38;;
29002;SDS011;16102;57.138;-2.118;2022-11-18T04:15:52;13.93;;;3.45;;
29002;SDS011;16102;57.138;-2.118;2022-11-18T04:18:21;15.02;;;3.67;;
29002;SDS011;16102;57.138;-2.118;2022-11-18T04:20:48;13.30;;;4.22;;
29002;SDS011;16102;57.138;-2.118;2022-11-18T04:23:15;11.10;;;2.80;;
29002;SDS011;16102;57.138;-2.118;2022-11-18T04:25:42;10.00;;;2.40;;
29002;SDS011;16102;57.138;-2.118;2022-11-18T04:28:09;11.10;;;2.22;;
29002;SDS011;16102;57.138;-2.118;2022-11-18T04:30:36;10.10;;;3.65;;
29002;SDS011;16102;57.138;-2.118;2022-11-18T04:33:03;15.93;;;3.45;;
29002;SDS011;16102;57.138;-2.118;2022-11-18T04:35:31;7.72;;;2.53;;
29002;SDS011;16102;57.138;-2.118;2022-11-18T04:37:59;12.85;;;2.80;;
29002;SDS011;16102;57.138;-2.118;2022-11-18T04:40:26;10.30;;;2.95;;
29002;SDS011;16102;57.138;-2.118;2022-11-18T04:42:53;11.15;;;3.30;;
29002;SDS011;16102;57.138;-2.118;2022-11-18T04:45:20;7.68;;;2.05;;
29002;SDS011;16102;57.138;-2.118;2022-11-18T04:47:47;11.98;;;3.20;;
29002;SDS011;16102;57.138;-2.118;2022-11-18T04:50:15;23.63;;;4.25;;
29002;SDS011;16102;57.138;-2.118;2022-11-18T04:52:42;16.80;;;4.05;;
29002;SDS011;16102;57.138;-2.118;2022-11-18T04:55:09;12.40;;;3.50;;
29002;SDS011;16102;57.138;-2.118;2022-11-18T04:57:36;13.32;;;2.85;;
29002;SDS011;16102;57.138;-2.118;2022-11-18T05:00:03;16.52;;;4.10;;
29002;SDS011;16102;57.138;-2.118;2022-11-18T05:02:31;15.88;;;3.47;;
29002;SDS011;16102;57.138;-2.118;2022-11-18T05:04:58;12.07;;;2.67;;
29002;SDS011;16102;57.138;-2.118;2022-11-18T05:07:25;13.05;;;3.10;;
29002;SDS011;16102;57.138;-2.118;2022-11-18T05:09:52;15.82;;;3.60;;
29002;SDS011;16102;57.138;-2.118;2022-11-18T05:12:19;10.70;;;2.85;;
29002;SDS011;16102;57.138;-2.118;2022-11-18T05:15:05;26.08;;;5.05;;
29002;SDS011;16102;57.138;-2.118;2022-11-18T05:17:33;14.00;;;3.22;;
29002;SDS011;16102;57.138;-2.118;2022-11-18T05:20:01;10.32;;;2.65;;
29002;SDS011;16102;57.138;-2.118;2022-11-18T05:22:28;7.78;;;2.65;;
29002;SDS011;16102;57.138;-2.118;2022-11-18T05:24:57;13.63;;;2.50;;
29002;SDS011;16102;57.138;-2.118;2022-11-18T05:27:25;12.63;;;3.30;;
29002;SDS011;16102;57.138;-2.118;2022-11-18T05:29:52;21.35;;;4.68;;
29002;SDS011;16102;57.138;-2.118;2022-11-18T05:32:19;19.17;;;3.95;;
29002;SDS011;16102;57.138;-2.118;2022-11-18T05:34:46;22.70;;;4.95;;
29002;SDS011;16102;57.138;-2.118;2022-11-18T05:37:13;14.73;;;3.03;;
29002;SDS011;16102;57.138;-2.118;2022-11-18T05:39:40;20.02;;;4.30;;
29002;SDS011;16102;57.138;-2.118;2022-11-18T05:42:07;14.57;;;3.25;;
29002;SDS011;16102;57.138;-2.118;2022-11-18T05:44:54;7.20;;;2.17;;
29002;SDS011;16102;57.138;-2.118;2022-11-18T05:47:24;14.73;;;4.13;;
29002;SDS011;16102;57.138;-2.118;2022-11-18T05:49:51;12.20;;;3.85;;
29002;SDS011;16102;57.138;-2.118;2022-11-18T05:52:18;11.23;;;2.85;;
29002;SDS011;16102;57.138;-2.118;2022-11-18T05:54:47;10.35;;;2.88;;
29002;SDS011;16102;57.138;-2.118;2022-11-18T05:57:16;20.25;;;5.07;;
29002;SDS011;16102;57.138;-2.118;2022-11-18T05:59:43;23.50;;;4.45;;
29002;SDS011;16102;57.138;-2.118;2022-11-18T06:02:14;13.50;;;3.38;;
29002;SDS011;16102;57.138;-2.118;2022-11-18T06:04:52;14.23;;;3.08;;
29002;SDS011;16102;57.138;-2.118;2022-11-18T06:07:28;14.02;;;4.15;;
29002;SDS011;16102;57.138;-2.118;2022-11-18T06:10:17;15.93;;;4.13;;
29002;SDS011;16102;57.138;-2.118;2022-11-18T06:12:51;11.65;;;3.22;;
29002;SDS011;16102;57.138;-2.118;2022-11-18T06:15:39;18.08;;;3.95;;
29002;SDS011;16102;57.138;-2.118;2022-11-18T06:18:21;13.88;;;3.28;;
29002;SDS011;16102;57.138;-2.118;2022-11-18T06:20:55;15.90;;;4.72;;
29002;SDS011;16102;57.138;-2.118;2022-11-18T06:23:33;16.50;;;3.85;;
29002;SDS011;16102;57.138;-2.118;2022-11-18T06:26:12;15.13;;;4.00;;
29002;SDS011;16102;57.138;-2.118;2022-11-18T06:28:42;11.18;;;2.72;;
29002;SDS011;16102;57.138;-2.118;2022-11-18T06:31:11;10.80;;;3.10;;
29002;SDS011;16102;57.138;-2.118;2022-11-18T06:33:38;12.63;;;4.20;;
29002;SDS011;16102;57.138;-2.118;2022-11-18T06:36:05;10.35;;;2.90;;
29002;SDS011;16102;57.138;-2.118;2022-11-18T06:38:32;13.05;;;4.05;;
29002;SDS011;16102;57.138;-2.118;2022-11-18T06:41:00;17.05;;;3.45;;
29002;SDS011;16102;57.138;-2.118;2022-11-18T06:43:27;20.05;;;4.28;;
29002;SDS011;16102;57.138;-2.118;2022-11-18T06:46:13;14.40;;;3.65;;
29002;SDS011;16102;57.138;-2.118;2022-11-18T06:49:00;13.00;;;3.17;;
29002;SDS011;16102;57.138;-2.118;2022-11-18T06:51:28;13.18;;;3.42;;
29002;SDS011;16102;57.138;-2.118;2022-11-18T06:53:55;14.95;;;3.75;;
29002;SDS011;16102;57.138;-2.118;2022-11-18T06:56:22;14.90;;;4.00;;
29002;SDS011;16102;57.138;-2.118;2022-11-18T06:58:53;13.00;;;3.83;;
29002;SDS011;16102;57.138;-2.118;2022-11-18T07:01:25;26.35;;;5.70;;
29002;SDS011;16102;57.138;-2.118;2022-11-18T07:03:54;17.30;;;3.63;;
29002;SDS011;16102;57.138;-2.118;2022-11-18T07:06:23;16.10;;;3.92;;
29002;SDS011;16102;57.138;-2.118;2022-11-18T07:08:52;10.05;;;3.88;;
29002;SDS011;16102;57.138;-2.118;2022-11-18T07:11:20;22.00;;;4.43;;
29002;SDS011;16102;57.138;-2.118;2022-11-18T07:13:49;12.82;;;3.78;;
29002;SDS011;16102;57.138;-2.118;2022-11-18T07:16:17;27.70;;;6.55;;
29002;SDS011;16102;57.138;-2.118;2022-11-18T07:18:46;15.73;;;4.68;;
29002;SDS011;16102;57.138;-2.118;2022-11-18T07:21:16;12.68;;;3.60;;
29002;SDS011;16102;57.138;-2.118;2022-11-18T07:23:44;18.02;;;4.75;;
29002;SDS011;16102;57.138;-2.118;2022-11-18T07:26:12;13.10;;;3.55;;
29002;SDS011;16102;57.138;-2.118;2022-11-18T07:28:39;15.20;;;4.13;;
29002;SDS011;16102;57.138;-2.118;2022-11-18T07:31:16;21.40;;;5.70;;
29002;SDS011;16102;57.138;-2.118;2022-11-18T07:33:45;15.10;;;4.22;;
29002;SDS011;16102;57.138;-2.118;2022-11-18T07:36:19;13.60;;;4.07;;
29002;SDS011;16102;57.138;-2.118;2022-11-18T07:39:00;22.83;;;5.07;;
29002;SDS011;16102;57.138;-2.118;2022-11-18T07:41:37;19.95;;;3.90;;
29002;SDS011;16102;57.138;-2.118;2022-11-18T07:44:16;23.85;;;5.20;;
29002;SDS011;16102;57.138;-2.118;2022-11-18T07:46:43;14.30;;;4.35;;
29002;SDS011;16102;57.138;-2.118;2022-11-18T07:49:10;16.50;;;5.13;;
29002;SDS011;16102;57.138;-2.118;2022-11-18T07:51:38;18.23;;;5.25;;
29002;SDS011;16102;57.138;-2.118;2022-11-18T07:54:19;18.98;;;5.75;;
29002;SDS011;16102;57.138;-2.118;2022-11-18T07:56:46;21.30;;;5.60;;
29002;SDS011;16102;57.138;-2.118;2022-11-18T07:59:13;17.10;;;5.72;;
29002;SDS011;16102;57.138;-2.118;2022-11-18T08:01:44;16.20;;;5.35;;
29002;SDS011;16102;57.138;-2.118;2022-11-18T08:04:11;25.17;;;6.43;;
29002;SDS011;16102;57.138;-2.118;2022-11-18T08:06:43;27.20;;;7.90;;
29002;SDS011;16102;57.138;-2.118;2022-11-18T08:09:22;24.05;;;6.13;;
29002;SDS011;16102;57.138;-2.118;2022-11-18T08:11:58;21.60;;;6.00;;
29002;SDS011;16102;57.138;-2.118;2022-11-18T08:16:53;24.48;;;6.80;;
29002;SDS011;16102;57.138;-2.118;2022-11-18T08:19:21;24.65;;;6.40;;
29002;SDS011;16102;57.138;-2.118;2022-11-18T08:21:51;19.20;;;5.40;;
29002;SDS011;16102;57.138;-2.118;2022-11-18T08:24:24;23.63;;;6.55;;
29002;SDS011;16102;57.138;-2.118;2022-11-18T08:26:51;34.28;;;7.05;;
29002;SDS011;16102;57.138;-2.118;2022-11-18T08:29:19;30.13;;;7.65;;
29002;SDS011;16102;57.138;-2.118;2022-11-18T08:31:50;35.42;;;9.68;;
29002;SDS011;16102;57.138;-2.118;2022-11-18T08:34:21;24.45;;;6.40;;
29002;SDS011;16102;57.138;-2.118;2022-11-18T08:36:48;14.45;;;4.93;;
29002;SDS011;16102;57.138;-2.118;2022-11-18T08:39:15;27.38;;;7.53;;
29002;SDS011;16102;57.138;-2.118;2022-11-18T08:41:43;15.57;;;5.07;;
29002;SDS011;16102;57.138;-2.118;2022-11-18T08:44:13;15.77;;;4.30;;
29002;SDS011;16102;57.138;-2.118;2022-11-18T08:46:41;22.13;;;5.75;;
29002;SDS011;16102;57.138;-2.118;2022-11-18T08:49:11;25.45;;;6.03;;
29002;SDS011;16102;57.138;-2.118;2022-11-18T08:51:38;26.10;;;8.00;;
29002;SDS011;16102;57.138;-2.118;2022-11-18T08:54:05;23.02;;;6.88;;
29002;SDS011;16102;57.138;-2.118;2022-11-18T08:56:33;18.33;;;5.50;;
29002;SDS011;16102;57.138;-2.118;2022-11-18T08:59:00;21.48;;;6.75;;
29002;SDS011;16102;57.138;-2.118;2022-11-18T09:01:27;19.80;;;5.78;;
29002;SDS011;16102;57.138;-2.118;2022-11-18T09:03:54;16.27;;;5.72;;
29002;SDS011;16102;57.138;-2.118;2022-11-18T09:06:23;20.50;;;5.30;;
29002;SDS011;16102;57.138;-2.118;2022-11-18T09:08:50;15.05;;;5.45;;
29002;SDS011;16102;57.138;-2.118;2022-11-18T09:11:20;19.25;;;5.80;;
29002;SDS011;16102;57.138;-2.118;2022-11-18T09:13:53;19.90;;;7.22;;
29002;SDS011;16102;57.138;-2.118;2022-11-18T09:16:41;21.42;;;5.35;;
29002;SDS011;16102;57.138;-2.118;2022-11-18T09:19:08;18.38;;;5.25;;
29002;SDS011;16102;57.138;-2.118;2022-11-18T09:21:55;19.50;;;5.25;;
29002;SDS011;16102;57.138;-2.118;2022-11-18T09:24:22;13.48;;;4.15;;
29002;SDS011;16102;57.138;-2.118;2022-11-18T09:26:49;16.85;;;5.38;;
29002;SDS011;16102;57.138;-2.118;2022-11-18T09:29:19;24.63;;;6.50;;
29002;SDS011;16102;57.138;-2.118;2022-11-18T09:31:52;13.85;;;5.43;;
29002;SDS011;16102;57.138;-2.118;2022-11-18T09:34:20;23.88;;;5.40;;
29002;SDS011;16102;57.138;-2.118;2022-11-18T09:36:47;22.77;;;6.13;;
29002;SDS011;16102;57.138;-2.118;2022-11-18T09:39:14;29.27;;;7.13;;
29002;SDS011;16102;57.138;-2.118;2022-11-18T09:44:20;19.77;;;5.78;;
29002;SDS011;16102;57.138;-2.118;2022-11-18T09:49:56;27.00;;;6.65;;
29002;SDS011;16102;57.138;-2.118;2022-11-18T09:55:30;26.67;;;6.65;;
29002;SDS011;16102;57.138;-2.118;2022-11-18T09:57:59;33.17;;;7.35;;
29002;SDS011;16102;57.138;-2.118;2022-11-18T10:00:28;21.42;;;6.10;;
29002;SDS011;16102;57.138;-2.118;2022-11-18T10:03:00;24.67;;;5.65;;
29002;SDS011;16102;57.138;-2.118;2022-11-18T10:05:43;14.80;;;4.47;;
29002;SDS011;16102;57.138;-2.118;2022-11-18T10:09:19;16.55;;;4.57;;
29002;SDS011;16102;57.138;-2.118;2022-11-18T10:11:40;15.95;;;4.95;;
29002;SDS011;16102;57.138;-2.118;2022-11-18T10:19:56;32.42;;;7.95;;
29002;SDS011;16102;57.138;-2.118;2022-11-18T10:25:57;19.83;;;5.93;;
29002;SDS011;16102;57.138;-2.118;2022-11-18T10:28:25;25.02;;;7.22;;
29002;SDS011;16102;57.138;-2.118;2022-11-18T10:31:04;27.05;;;6.75;;
29002;SDS011;16102;57.138;-2.118;2022-11-18T10:33:37;25.65;;;6.13;;
29002;SDS011;16102;57.138;-2.118;2022-11-18T10:39:12;19.73;;;5.45;;
29002;SDS011;16102;57.138;-2.118;2022-11-18T10:41:45;26.95;;;7.75;;
29002;SDS011;16102;57.138;-2.118;2022-11-18T10:44:26;19.55;;;6.10;;
29002;SDS011;16102;57.138;-2.118;2022-11-18T10:47:38;23.90;;;6.32;;
29002;SDS011;16102;57.138;-2.118;2022-11-18T10:52:55;14.95;;;4.55;;
29002;SDS011;16102;57.138;-2.118;2022-11-18T10:55:23;17.90;;;5.70;;
29002;SDS011;16102;57.138;-2.118;2022-11-18T10:57:53;27.23;;;7.28;;
29002;SDS011;16102;57.138;-2.118;2022-11-18T11:00:40;32.67;;;6.50;;
29002;SDS011;16102;57.138;-2.118;2022-11-18T11:06:52;15.18;;;5.35;;
29002;SDS011;16102;57.138;-2.118;2022-11-18T11:09:29;28.80;;;6.72;;
29002;SDS011;16102;57.138;-2.118;2022-11-18T11:17:10;13.57;;;4.53;;
29002;SDS011;16102;57.138;-2.118;2022-11-18T11:22:24;17.48;;;5.20;;
29002;SDS011;16102;57.138;-2.118;2022-11-18T11:24:52;19.80;;;5.60;;
29002;SDS011;16102;57.138;-2.118;2022-11-18T11:27:23;24.20;;;6.30;;
29002;SDS011;16102;57.138;-2.118;2022-11-18T11:30:21;25.52;;;5.85;;
29002;SDS011;16102;57.138;-2.118;2022-11-18T11:35:26;24.90;;;6.88;;
29002;SDS011;16102;57.138;-2.118;2022-11-18T11:40:52;27.48;;;5.82;;
29002;SDS011;16102;57.138;-2.118;2022-11-18T11:49:44;26.23;;;6.30;;
29002;SDS011;16102;57.138;-2.118;2022-11-18T11:55:14;16.05;;;5.10;;
29002;SDS011;16102;57.138;-2.118;2022-11-18T12:00:39;25.30;;;6.25;;
29002;SDS011;16102;57.138;-2.118;2022-11-18T12:05:45;16.95;;;4.72;;
29002;SDS011;16102;57.138;-2.118;2022-11-18T12:08:16;16.70;;;4.43;;
29002;SDS011;16102;57.138;-2.118;2022-11-18T12:16:35;20.83;;;5.82;;
29002;SDS011;16102;57.138;-2.118;2022-11-18T12:19:13;14.18;;;4.63;;
29002;SDS011;16102;57.138;-2.118;2022-11-18T12:29:40;20.02;;;5.30;;
29002;SDS011;16102;57.138;-2.118;2022-11-18T12:34:59;23.15;;;7.47;;
29002;SDS011;16102;57.138;-2.118;2022-11-18T12:40:31;22.13;;;5.22;;
29002;SDS011;16102;57.138;-2.118;2022-11-18T12:48:52;25.83;;;6.28;;
29002;SDS011;16102;57.138;-2.118;2022-11-18T12:53:49;14.00;;;4.90;;
29002;SDS011;16102;57.138;-2.118;2022-11-18T12:58:52;19.98;;;5.55;;
29002;SDS011;16102;57.138;-2.118;2022-11-18T13:01:22;17.17;;;5.53;;
29002;SDS011;16102;57.138;-2.118;2022-11-18T13:03:51;24.35;;;6.47;;
29002;SDS011;16102;57.138;-2.118;2022-11-18T13:06:31;28.42;;;6.68;;
29002;SDS011;16102;57.138;-2.118;2022-11-18T13:09:00;13.80;;;4.68;;
29002;SDS011;16102;57.138;-2.118;2022-11-18T13:11:34;14.35;;;4.53;;
29002;SDS011;16102;57.138;-2.118;2022-11-18T13:14:24;13.57;;;4.93;;
29002;SDS011;16102;57.138;-2.118;2022-11-18T13:17:31;19.27;;;4.88;;
29002;SDS011;16102;57.138;-2.118;2022-11-18T13:22:53;19.45;;;5.55;;
29002;SDS011;16102;57.138;-2.118;2022-11-18T13:25:39;13.80;;;5.25;;
29002;SDS011;16102;57.138;-2.118;2022-11-18T13:33:54;30.00;;;6.88;;
29002;SDS011;16102;57.138;-2.118;2022-11-18T13:36:22;12.40;;;3.90;;
29002;SDS011;16102;57.138;-2.118;2022-11-18T13:39:33;14.48;;;4.40;;
29002;SDS011;16102;57.138;-2.118;2022-11-18T13:44:32;17.52;;;5.65;;
29002;SDS011;16102;57.138;-2.118;2022-11-18T13:52:35;17.35;;;4.53;;
29002;SDS011;16102;57.138;-2.118;2022-11-18T13:55:08;19.98;;;5.30;;
29002;SDS011;16102;57.138;-2.118;2022-11-18T14:00:43;14.48;;;3.80;;
29002;SDS011;16102;57.138;-2.118;2022-11-18T14:05:57;24.95;;;5.30;;
29002;SDS011;16102;57.138;-2.118;2022-11-18T14:08:31;15.27;;;4.43;;
29002;SDS011;16102;57.138;-2.118;2022-11-18T14:11:00;15.60;;;4.75;;
29002;SDS011;16102;57.138;-2.118;2022-11-18T14:13:28;15.35;;;4.93;;
29002;SDS011;16102;57.138;-2.118;2022-11-18T14:15:56;22.35;;;5.65;;
29002;SDS011;16102;57.138;-2.118;2022-11-18T14:18:30;19.85;;;4.93;;
29002;SDS011;16102;57.138;-2.118;2022-11-18T14:20:59;24.83;;;5.57;;
29002;SDS011;16102;57.138;-2.118;2022-11-18T14:23:32;31.45;;;6.63;;
29002;SDS011;16102;57.138;-2.118;2022-11-18T14:26:04;16.70;;;5.47;;
29002;SDS011;16102;57.138;-2.118;2022-11-18T14:28:33;19.10;;;5.45;;
29002;SDS011;16102;57.138;-2.118;2022-11-18T14:34:04;18.63;;;4.07;;
29002;SDS011;16102;57.138;-2.118;2022-11-18T14:36:32;30.83;;;6.95;;
29002;SDS011;16102;57.138;-2.118;2022-11-18T14:38:59;16.48;;;4.25;;
29002;SDS011;16102;57.138;-2.118;2022-11-18T14:41:46;14.80;;;4.63;;
29002;SDS011;16102;57.138;-2.118;2022-11-18T14:44:13;20.70;;;5.53;;
29002;SDS011;16102;57.138;-2.118;2022-11-18T14:46:41;26.00;;;5.93;;
29002;SDS011;16102;57.138;-2.118;2022-11-18T14:49:14;29.83;;;7.18;;
29002;SDS011;16102;57.138;-2.118;2022-11-18T14:51:44;23.35;;;5.28;;
29002;SDS011;16102;57.138;-2.118;2022-11-18T14:54:15;15.52;;;4.15;;
29002;SDS011;16102;57.138;-2.118;2022-11-18T14:56:52;18.75;;;4.47;;
29002;SDS011;16102;57.138;-2.118;2022-11-18T14:59:22;15.75;;;4.47;;
29002;SDS011;16102;57.138;-2.118;2022-11-18T15:01:49;25.25;;;7.20;;
29002;SDS011;16102;57.138;-2.118;2022-11-18T15:04:16;21.05;;;5.05;;
29002;SDS011;16102;57.138;-2.118;2022-11-18T15:06:46;24.23;;;5.45;;
29002;SDS011;16102;57.138;-2.118;2022-11-18T15:09:14;24.08;;;4.95;;
29002;SDS011;16102;57.138;-2.118;2022-11-18T15:11:41;26.23;;;6.65;;
29002;SDS011;16102;57.138;-2.118;2022-11-18T15:14:08;23.55;;;6.30;;
29002;SDS011;16102;57.138;-2.118;2022-11-18T15:16:35;17.73;;;4.78;;
29002;SDS011;16102;57.138;-2.118;2022-11-18T15:19:03;17.38;;;4.63;;
29002;SDS011;16102;57.138;-2.118;2022-11-18T15:21:31;22.50;;;6.10;;
29002;SDS011;16102;57.138;-2.118;2022-11-18T15:23:59;13.77;;;4.18;;
29002;SDS011;16102;57.138;-2.118;2022-11-18T15:26:27;20.35;;;4.78;;
29002;SDS011;16102;57.138;-2.118;2022-11-18T15:28:59;17.77;;;5.60;;
29002;SDS011;16102;57.138;-2.118;2022-11-18T15:31:26;14.45;;;4.38;;
29002;SDS011;16102;57.138;-2.118;2022-11-18T15:33:54;13.30;;;4.30;;
29002;SDS011;16102;57.138;-2.118;2022-11-18T15:36:22;15.63;;;4.03;;
29002;SDS011;16102;57.138;-2.118;2022-11-18T15:38:51;20.33;;;4.90;;
29002;SDS011;16102;57.138;-2.118;2022-11-18T15:41:23;20.55;;;6.03;;
29002;SDS011;16102;57.138;-2.118;2022-11-18T15:43:53;21.83;;;4.95;;
29002;SDS011;16102;57.138;-2.118;2022-11-18T15:46:22;17.75;;;5.43;;
29002;SDS011;16102;57.138;-2.118;2022-11-18T15:48:51;25.30;;;6.78;;
29002;SDS011;16102;57.138;-2.118;2022-11-18T15:51:19;22.70;;;5.88;;
29002;SDS011;16102;57.138;-2.118;2022-11-18T15:53:47;17.95;;;4.47;;
29002;SDS011;16102;57.138;-2.118;2022-11-18T15:58:45;26.77;;;7.20;;
29002;SDS011;16102;57.138;-2.118;2022-11-18T16:01:22;19.83;;;5.15;;
29002;SDS011;16102;57.138;-2.118;2022-11-18T16:03:51;15.95;;;5.15;;
29002;SDS011;16102;57.138;-2.118;2022-11-18T16:06:18;14.52;;;4.35;;
29002;SDS011;16102;57.138;-2.118;2022-11-18T16:08:45;18.70;;;4.93;;
29002;SDS011;16102;57.138;-2.118;2022-11-18T16:11:13;20.20;;;5.05;;
29002;SDS011;16102;57.138;-2.118;2022-11-18T16:14:00;16.40;;;5.05;;
29002;SDS011;16102;57.138;-2.118;2022-11-18T16:16:31;20.67;;;5.45;;
29002;SDS011;16102;57.138;-2.118;2022-11-18T16:19:00;28.05;;;5.57;;
29002;SDS011;16102;57.138;-2.118;2022-11-18T16:21:28;20.42;;;5.53;;
29002;SDS011;16102;57.138;-2.118;2022-11-18T16:23:59;16.25;;;3.65;;
29002;SDS011;16102;57.138;-2.118;2022-11-18T16:26:27;23.17;;;6.63;;
29002;SDS011;16102;57.138;-2.118;2022-11-18T16:28:58;29.95;;;6.82;;
29002;SDS011;16102;57.138;-2.118;2022-11-18T16:31:25;25.85;;;5.68;;
29002;SDS011;16102;57.138;-2.118;2022-11-18T16:34:16;17.58;;;4.57;;
29002;SDS011;16102;57.138;-2.118;2022-11-18T16:36:55;19.45;;;5.22;;
29002;SDS011;16102;57.138;-2.118;2022-11-18T16:39:26;16.27;;;5.03;;
29002;SDS011;16102;57.138;-2.118;2022-11-18T16:41:58;17.23;;;4.25;;
29002;SDS011;16102;57.138;-2.118;2022-11-18T16:44:34;18.48;;;4.18;;
29002;SDS011;16102;57.138;-2.118;2022-11-18T16:47:02;18.00;;;4.35;;
29002;SDS011;16102;57.138;-2.118;2022-11-18T16:49:37;18.45;;;5.43;;
29002;SDS011;16102;57.138;-2.118;2022-11-18T16:52:04;17.83;;;4.93;;
29002;SDS011;16102;57.138;-2.118;2022-11-18T16:54:33;17.35;;;4.80;;
29002;SDS011;16102;57.138;-2.118;2022-11-18T16:57:06;20.48;;;5.13;;
29002;SDS011;16102;57.138;-2.118;2022-11-18T16:59:34;31.13;;;7.55;;
29002;SDS011;16102;57.138;-2.118;2022-11-18T17:02:01;24.38;;;6.57;;
29002;SDS011;16102;57.138;-2.118;2022-11-18T17:04:29;23.42;;;6.13;;
29002;SDS011;16102;57.138;-2.118;2022-11-18T17:06:56;22.50;;;5.25;;
29002;SDS011;16102;57.138;-2.118;2022-11-18T17:09:27;21.13;;;5.43;;
29002;SDS011;16102;57.138;-2.118;2022-11-18T17:11:55;25.90;;;4.85;;
29002;SDS011;16102;57.138;-2.118;2022-11-18T17:14:24;22.75;;;6.03;;
29002;SDS011;16102;57.138;-2.118;2022-11-18T17:16:51;18.63;;;3.80;;
29002;SDS011;16102;57.138;-2.118;2022-11-18T17:19:19;22.40;;;5.47;;
29002;SDS011;16102;57.138;-2.118;2022-11-18T17:21:49;20.83;;;4.47;;